Flight Track Log - Related Links

Times and Time Zones

All times are in EDT time to prevent confusion due to time zone crossing. See the FDX1347 flight status page for this flight to view local times or setup timezone preferences in your user account.

Time Position Orientation Groundspeed Altitude Reporting Facility
EDT Latitude Longitude Course Direction KTS MPH feet Rate Location/Type
Tue 09:59:40 PM 42.7250 -73.8058 260° West 171 197 1,600  Level Boston Center
Tue 10:00:22 PM 42.7194 -73.8478 260° West 183 211 3,200 2,129 Climbing Boston Center
Tue 10:00:42 PM 42.7236 -73.8694 285° West 184 212 3,800 2,625 Climbing Boston Center
Tue 10:01:42 PM 42.7275 -73.9553 274° West 229 264 6,700 2,167 Climbing Boston Center
Tue 10:07:29 PM 42.7690 -74.6310 274° West 350 403 18,500 2,022 Climbing FlightAware ADS-B
Tue 10:07:53 PM 42.7650 -74.6860 264° West 358 412 19,200 1,680 Climbing FlightAware ADS-B
Tue 10:08:19 PM 42.7460 -74.7430 246° West 375 432 19,900 1,875 Climbing FlightAware ADS-B
Tue 10:09:13 PM 42.6890 -74.8460 233° Southwest 382 440 21,700 1,902 Climbing FlightAware ADS-B
Tue 10:09:41 PM 42.6580 -74.8990 232° Southwest 383 441 22,500 1,643 Climbing FlightAware ADS-B
Tue 10:10:37 PM 42.5980 -75.0070 233° Southwest 390 449 24,000 1,650 Climbing FlightAware ADS-B
Tue 10:11:01 PM 42.5710 -75.0540 232° Southwest 392 451 24,700 1,500 Climbing FlightAware ADS-B
Tue 10:11:29 PM 42.5400 -75.1090 233° Southwest 395 455 25,300 1,340 Climbing FlightAware ADS-B
Tue 10:12:35 PM 42.4650 -75.2420 233° Southwest 405 466 26,800 1,322 Climbing FlightAware ADS-B
Tue 10:13:27 PM 42.4080 -75.3480 234° Southwest 413 475 27,900 1,237 Climbing FlightAware ADS-B
Tue 10:14:12 PM 42.3590 -75.4390 234° Southwest 425 489 28,800 1,646 Climbing FlightAware ADS-B
Tue 10:15:20 PM 42.2780 -75.5870 234° Southwest 422 486 31,000 2,069 Climbing FlightAware ADS-B
Tue 10:16:08 PM 42.2240 -75.6850 233° Southwest 409 471 32,800 2,229 Climbing FlightAware ADS-B
Tue 10:16:30 PM 42.1990 -75.7320 234° Southwest 404 465 33,600 1,519 Climbing FlightAware ADS-B
Tue 10:17:27 PM 42.1360 -75.8480 234° Southwest 394 453 34,800 913 Climbing FlightAware ADS-B
Tue 10:18:02 PM 42.0980 -75.9180 234° Southwest 382 440 35,000 128 Climbing FlightAware ADS-B
Tue 10:19:01 PM 42.0360 -76.0290 233° Southwest 386 444 35,000  Level FlightAware ADS-B
Tue 10:19:35 PM 41.9990 -76.0960 233° Southwest 387 445 35,000 940 Level FlightAware ADS-B
Tue 10:20:24 PM 41.9480 -76.1880 233° Southwest 378 435 36,300 1,407 Climbing FlightAware ADS-B
Tue 10:20:56 PM 41.9140 -76.2480 233° Southwest 378 435 36,900 986 Climbing FlightAware ADS-B
Tue 10:21:37 PM 41.8720 -76.3260 234° Southwest 384 442 37,500 892 Climbing FlightAware ADS-B
Tue 10:22:10 PM 41.8380 -76.3850 232° Southwest 382 440 38,000 429 Climbing FlightAware ADS-B
Tue 10:22:47 PM 41.7980 -76.4580 234° Southwest 372 428 38,000  Level FlightAware ADS-B
Tue 10:23:30 PM 41.7540 -76.5370 233° Southwest 366 421 38,000  Level FlightAware ADS-B
Tue 10:24:30 PM 41.7050 -76.6530 241° Southwest 364 419 38,000  Level FlightAware ADS-B
Tue 10:25:27 PM 41.6610 -76.7670 243° Southwest 366 421 38,000  Level FlightAware ADS-B
Tue 10:26:03 PM 41.6310 -76.8410 242° Southwest 366 421 38,000  Level FlightAware ADS-B
Tue 10:26:51 PM 41.5930 -76.9370 242° Southwest 365 420 38,000  Level FlightAware ADS-B
Tue 10:27:43 PM 41.5520 -77.0430 243° Southwest 365 420 38,000  Level FlightAware ADS-B
Tue 10:28:33 PM 41.5140 -77.1400 242° Southwest 364 419 38,000  Level FlightAware ADS-B
Tue 10:29:21 PM 41.4750 -77.2350 241° Southwest 363 418 38,000  Level FlightAware ADS-B
Tue 10:30:09 PM 41.4380 -77.3300 243° Southwest 363 418 38,000  Level FlightAware ADS-B
Tue 10:31:08 PM 41.3910 -77.4470 242° Southwest 365 420 38,000  Level FlightAware ADS-B
Tue 10:31:55 PM 41.3550 -77.5360 242° Southwest 366 421 38,000  Level FlightAware ADS-B
Tue 10:32:45 PM 41.3140 -77.6380 242° Southwest 367 422 38,000  Level FlightAware ADS-B
Tue 10:33:35 PM 41.2720 -77.7410 242° Southwest 369 425 38,000  Level FlightAware ADS-B
Tue 10:34:32 PM 41.2260 -77.8540 242° Southwest 371 427 38,000  Level FlightAware ADS-B
Tue 10:35:23 PM 41.1840 -77.9560 241° Southwest 372 428 38,000  Level FlightAware ADS-B
Tue 10:36:16 PM 41.1410 -78.0630 242° Southwest 373 429 38,000  Level FlightAware ADS-B
Tue 10:36:48 PM 41.1140 -78.1290 242° Southwest 373 429 38,000  Level FlightAware ADS-B
Tue 10:37:38 PM 41.0730 -78.2270 241° Southwest 373 429 38,000  Level FlightAware ADS-B
Tue 10:38:23 PM 41.0350 -78.3200 242° Southwest 373 429 38,000  Level FlightAware ADS-B
Tue 10:38:54 PM 41.0100 -78.3810 242° Southwest 373 429 38,000  Level FlightAware ADS-B
Tue 10:39:49 PM 40.9650 -78.4870 241° Southwest 372 428 38,000  Level FlightAware ADS-B
Tue 10:40:37 PM 40.9260 -78.5830 242° Southwest 372 428 38,000  Level FlightAware ADS-B
Tue 10:41:29 PM 40.8810 -78.6890 241° Southwest 372 428 38,000  Level FlightAware ADS-B
Tue 10:42:24 PM 40.8360 -78.7980 241° Southwest 372 428 38,000  Level FlightAware ADS-B
Tue 10:43:05 PM 40.8010 -78.8790 240° Southwest 372 428 38,000  Level FlightAware ADS-B
Tue 10:43:48 PM 40.7660 -78.9630 241° Southwest 372 428 38,000  Level FlightAware ADS-B
Tue 10:44:16 PM 40.7410 -79.0230 241° Southwest 373 429 38,000  Level FlightAware ADS-B
Tue 10:45:13 PM 40.6940 -79.1340 241° Southwest 374 430 38,000  Level FlightAware ADS-B
Tue 10:46:05 PM 40.6510 -79.2330 240° Southwest 375 432 38,000  Level FlightAware ADS-B
Tue 10:46:53 PM 40.6090 -79.3330 241° Southwest 376 433 38,000  Level FlightAware ADS-B
Tue 10:47:36 PM 40.5720 -79.4190 240° Southwest 377 434 38,000  Level FlightAware ADS-B
Tue 10:48:36 PM 40.5190 -79.5410 240° Southwest 377 434 38,000  Level FlightAware ADS-B
Tue 10:49:05 PM 40.4960 -79.5970 242° Southwest 377 434 38,000  Level FlightAware ADS-B
Tue 10:49:38 PM 40.4670 -79.6630 240° Southwest 377 434 38,000  Level FlightAware ADS-B
Tue 10:50:25 PM 40.4260 -79.7560 240° Southwest 378 435 38,000  Level FlightAware ADS-B
Tue 10:50:55 PM 40.4000 -79.8160 240° Southwest 377 434 38,000  Level FlightAware ADS-B
Tue 10:51:43 PM 40.3554 -79.9192 240° Southwest 378 435 38,000  Level FlightAware ADS-B
Tue 10:52:26 PM 40.3230 -79.9950 241° Southwest 377 434 38,000  Level FlightAware ADS-B
Tue 10:53:10 PM 40.4221 -79.7662 60° Northeast 378 435 38,000  Level FlightAware ADS-B
Tue 10:54:00 PM 40.2400 -80.1830 240° Southwest 377 434 38,000  Level FlightAware ADS-B
Tue 10:54:30 PM 40.2140 -80.2420 240° Southwest 377 434 38,000  Level FlightAware ADS-B
Tue 10:55:05 PM 40.1830 -80.3110 240° Southwest 377 434 38,000  Level FlightAware ADS-B
Tue 10:56:18 PM 40.1190 -80.4570 240° Southwest 379 436 38,000  Level FlightAware ADS-B
Tue 10:57:10 PM 40.0740 -80.5590 240° Southwest 379 436 38,000  Level FlightAware ADS-B
Tue 10:58:03 PM 40.0270 -80.6620 239° Southwest 381 438 38,000  Level FlightAware ADS-B
Tue 10:58:47 PM 39.9870 -80.7510 240° Southwest 381 438 38,000  Level FlightAware ADS-B
Tue 10:59:25 PM 39.9540 -80.8260 240° Southwest 382 440 38,000  Level FlightAware ADS-B
Tue 11:00:33 PM 39.8920 -80.9610 239° Southwest 381 438 38,000  Level FlightAware ADS-B
Tue 11:01:22 PM 39.8490 -81.0580 240° Southwest 379 436 38,000  Level FlightAware ADS-B
Tue 11:02:10 PM 39.8070 -81.1520 240° Southwest 377 434 38,000  Level FlightAware ADS-B
Tue 11:03:01 PM 39.7610 -81.2530 239° Southwest 378 435 38,000  Level FlightAware ADS-B
Tue 11:03:35 PM 39.7300 -81.3200 239° Southwest 377 434 38,000  Level FlightAware ADS-B
Tue 11:04:27 PM 39.6840 -81.4210 239° Southwest 377 434 38,000  Level FlightAware ADS-B
Tue 11:05:00 PM 39.6560 -81.4830 240° Southwest 377 434 38,000  Level FlightAware ADS-B
Tue 11:05:32 PM 39.6270 -81.5450 239° Southwest 377 434 38,000  Level FlightAware ADS-B
Tue 11:06:19 PM 39.5840 -81.6370 239° Southwest 380 437 38,000  Level FlightAware ADS-B
Tue 11:07:13 PM 39.5350 -81.7450 240° Southwest 379 436 38,000  Level FlightAware ADS-B
Tue 11:08:01 PM 39.4910 -81.8390 239° Southwest 380 437 38,000  Level FlightAware ADS-B
Tue 11:08:56 PM 39.4420 -81.9440 239° Southwest 382 440 38,000  Level FlightAware ADS-B
Tue 11:09:53 PM 39.3890 -82.0580 239° Southwest 382 440 38,000  Level FlightAware ADS-B
Tue 11:10:49 PM 39.3380 -82.1670 239° Southwest 383 441 38,000  Level FlightAware ADS-B
Tue 11:11:31 PM 39.3000 -82.2490 239° Southwest 382 440 38,000  Level FlightAware ADS-B
Tue 11:12:03 PM 39.2700 -82.3120 238° Southwest 382 440 38,000  Level FlightAware ADS-B
Tue 11:12:41 PM 39.2350 -82.3860 239° Southwest 383 441 38,000  Level FlightAware ADS-B
Tue 11:13:35 PM 39.1850 -82.4910 238° Southwest 384 442 38,000  Level FlightAware ADS-B
Tue 11:14:13 PM 39.1500 -82.5650 239° Southwest 384 442 38,000  Level FlightAware ADS-B
Tue 11:15:03 PM 39.1030 -82.6600 238° Southwest 386 444 38,000  Level FlightAware ADS-B
Tue 11:15:49 PM 39.0550 -82.7470 235° Southwest 389 448 38,000  Level FlightAware ADS-B
Tue 11:16:35 PM 39.0060 -82.8340 234° Southwest 388 447 38,000  Level FlightAware ADS-B
Tue 11:16:57 PM 38.9830 -82.8730 233° Southwest 387 445 38,000  Level FlightAware ADS-B
Tue 11:18:04 PM 38.9120 -82.9960 233° Southwest 384 442 38,000  Level FlightAware ADS-B
Tue 11:18:59 PM 38.8540 -83.0990 234° Southwest 380 437 38,000  Level FlightAware ADS-B
Tue 11:19:51 PM 38.8000 -83.1920 233° Southwest 379 436 38,000  Level FlightAware ADS-B
Tue 11:20:36 PM 38.7540 -83.2730 234° Southwest 377 434 38,000  Level FlightAware ADS-B
Tue 11:21:23 PM 38.7050 -83.3580 234° Southwest 377 434 38,000  Level FlightAware ADS-B
Tue 11:22:05 PM 38.6620 -83.4330 234° Southwest 378 435 38,000  Level FlightAware ADS-B
Tue 11:23:03 PM 38.6010 -83.5380 233° Southwest 379 436 38,000  Level FlightAware ADS-B
Tue 11:23:31 PM 38.5720 -83.5880 233° Southwest 379 436 38,000  Level FlightAware ADS-B
Tue 11:24:15 PM 38.5270 -83.6680 234° Southwest 380 437 38,000  Level FlightAware ADS-B
Tue 11:25:07 PM 38.4720 -83.7610 233° Southwest 378 435 38,000  Level FlightAware ADS-B
Tue 11:25:33 PM 38.4440 -83.8100 234° Southwest 377 434 38,000  Level FlightAware ADS-B
Tue 11:26:17 PM 38.3980 -83.8880 233° Southwest 373 429 38,000  Level FlightAware ADS-B
Tue 11:26:45 PM 38.3700 -83.9350 233° Southwest 373 429 38,000  Level FlightAware ADS-B
Tue 11:27:45 PM 38.3070 -84.0420 233° Southwest 370 426 38,000  Level FlightAware ADS-B
Tue 11:28:41 PM 38.2510 -84.1380 233° Southwest 368 423 38,000  Level FlightAware ADS-B
Tue 11:29:13 PM 38.2180 -84.1930 233° Southwest 367 422 38,000  Level FlightAware ADS-B
Tue 11:30:05 PM 38.1640 -84.2850 233° Southwest 367 422 38,000  Level FlightAware ADS-B
Tue 11:31:06 PM 38.1030 -84.3880 233° Southwest 367 422 38,000  Level FlightAware ADS-B
Tue 11:31:55 PM 38.0520 -84.4730 233° Southwest 370 426 38,000  Level FlightAware ADS-B
Tue 11:32:27 PM 38.0190 -84.5290 233° Southwest 371 427 38,000  Level FlightAware ADS-B
Tue 11:33:37 PM 37.9458 -84.6506 233° Southwest 373 429 38,000  Level FlightAware ADS-B
Tue 11:34:07 PM 37.9140 -84.7048 233° Southwest 375 432 38,000  Level FlightAware ADS-B
Tue 11:34:55 PM 37.8640 -84.7890 233° Southwest 375 432 38,000  Level FlightAware ADS-B
Tue 11:35:47 PM 37.8090 -84.8800 233° Southwest 376 433 38,000  Level FlightAware ADS-B
Tue 11:36:35 PM 37.7590 -84.9620 232° Southwest 376 433 38,000  Level FlightAware ADS-B
Tue 11:37:28 PM 37.7040 -85.0530 233° Southwest 376 433 38,000  Level FlightAware ADS-B
Tue 11:38:15 PM 37.6524 -85.1381 233° Southwest 377 434 38,000  Level FlightAware ADS-B
Tue 11:38:45 PM 37.6201 -85.1903 232° Southwest 377 434 38,000  Level FlightAware ADS-B
Tue 11:39:16 PM 37.5878 -85.2443 233° Southwest 377 434 38,000  Level FlightAware ADS-B
Tue 11:39:46 PM 37.5559 -85.2963 232° Southwest 374 430 38,000  Level FlightAware ADS-B
Tue 11:40:19 PM 37.5208 -85.3534 232° Southwest 374 430 38,000  Level FlightAware ADS-B
Tue 11:40:50 PM 37.4888 -85.4051 232° Southwest 374 430 38,000  Level FlightAware ADS-B
Tue 11:41:20 PM 37.4569 -85.4570 232° Southwest 374 430 38,000  Level FlightAware ADS-B
Tue 11:42:06 PM 37.4084 -85.5361 232° Southwest 374 430 38,000  Level FlightAware ADS-B
Tue 11:42:36 PM 37.3758 -85.5894 232° Southwest 373 429 38,000  Level FlightAware ADS-B
Tue 11:43:06 PM 37.3440 -85.6407 232° Southwest 373 429 38,000  Level FlightAware ADS-B
Tue 11:43:47 PM 37.3020 -85.7090 232° Southwest 372 428 38,000  Level FlightAware ADS-B
Tue 11:44:41 PM 37.2450 -85.8010 232° Southwest 372 428 38,000  Level FlightAware ADS-B
Tue 11:45:43 PM 37.1790 -85.9070 232° Southwest 372 428 38,000  Level FlightAware ADS-B
Tue 11:46:27 PM 37.1330 -85.9820 232° Southwest 371 427 38,000  Level FlightAware ADS-B
Tue 11:47:28 PM 37.0690 -86.0830 232° Southwest 374 430 38,000  Level FlightAware ADS-B
Tue 11:48:23 PM 37.0090 -86.1790 232° Southwest 373 429 38,000  Level FlightAware ADS-B
Tue 11:49:11 PM 36.9570 -86.2620 232° Southwest 374 430 38,000  Level FlightAware ADS-B
Tue 11:50:00 PM 36.9060 -86.3440 232° Southwest 376 433 38,000  Level FlightAware ADS-B
Tue 11:50:27 PM 36.8750 -86.3920 231° Southwest 376 433 38,000  Level FlightAware ADS-B
Tue 11:51:01 PM 36.8386 -86.4498 232° Southwest 375 432 38,000  Level FlightAware ADS-B
Tue 11:51:32 PM 36.8060 -86.5008 231° Southwest 375 432 38,000  Level FlightAware ADS-B
Tue 11:52:02 PM 36.7735 -86.5534 232° Southwest 375 432 38,000  Level FlightAware ADS-B
Tue 11:52:33 PM 36.7403 -86.6043 231° Southwest 375 432 38,000  Level FlightAware ADS-B
Tue 11:53:03 PM 36.7078 -86.6568 232° Southwest 375 432 38,000  Level FlightAware ADS-B
Tue 11:53:33 PM 36.6751 -86.7076 231° Southwest 375 432 38,000  Level FlightAware ADS-B
Tue 11:54:04 PM 36.6424 -86.7584 231° Southwest 375 432 38,000  Level FlightAware ADS-B
Tue 11:54:40 PM 36.6029 -86.8211 232° Southwest 377 434 38,000  Level FlightAware ADS-B
Tue 11:55:31 PM 36.5470 -86.9080 231° Southwest 379 436 38,000  Level FlightAware ADS-B
Tue 11:56:27 PM 36.4880 -87.0000 231° Southwest 380 437 38,000  Level FlightAware ADS-B
Tue 11:57:20 PM 36.4280 -87.0930 231° Southwest 381 438 38,000  Level FlightAware ADS-B
Tue 11:58:13 PM 36.3710 -87.1820 232° Southwest 382 440 38,000 -416 Level FlightAware ADS-B
Tue 11:59:01 PM 36.3180 -87.2640 231° Southwest 386 444 37,300 -1,188 Descending FlightAware ADS-B
Tue 11:59:49 PM 36.2640 -87.3480 231° Southwest 394 453 36,100 -1,468 Descending FlightAware ADS-B
Wed 12:00:35 AM 36.2080 -87.4340 231° Southwest 406 467 35,000 -660 Descending FlightAware ADS-B
Wed 12:01:29 AM 36.1430 -87.5320 231° Southwest 407 468 35,000 -279 Level FlightAware ADS-B
Wed 12:02:01 AM 36.1060 -87.5900 232° Southwest 401 461 34,600 -1,370 Descending FlightAware ADS-B
Wed 12:03:01 AM 36.0350 -87.6980 231° Southwest 411 473 32,900 -1,636 Descending FlightAware ADS-B
Wed 12:03:51 AM 35.9750 -87.7880 231° Southwest 414 476 31,600 -1,615 Descending FlightAware ADS-B
Wed 12:04:19 AM 35.9420 -87.8400 232° Southwest 417 480 30,800 -2,049 Descending FlightAware ADS-B
Wed 12:05:13 AM 35.8750 -87.9420 231° Southwest 436 502 28,800 -2,250 Descending FlightAware ADS-B
Wed 12:05:55 AM 35.8200 -88.0230 230° Southwest 444 511 27,200 -1,412 Descending FlightAware ADS-B
Wed 12:06:21 AM 35.7900 -88.0660 229° Southwest 444 511 27,200  Level FlightAware ADS-B
Wed 12:07:22 AM 35.7220 -88.1670 230° Southwest 444 511 27,200  Level FlightAware ADS-B
Wed 12:07:58 AM 35.6810 -88.2260 229° Southwest 444 511 27,200  Level FlightAware ADS-B
Wed 12:08:46 AM 35.6280 -88.3050 230° Southwest 444 511 27,200  Level FlightAware ADS-B
Wed 12:09:34 AM 35.5740 -88.3840 230° Southwest 444 511 27,200 -3,250 Level FlightAware ADS-B
Wed 12:10:46 AM 35.4672 -88.5242 230° Southwest 385 443 20,700 -3,864 Descending Memphis Center
Wed 12:11:46 AM 35.3975 -88.6122 226° Southwest 368 423 18,700 -1,800 Descending Memphis Center
Wed 12:12:46 AM 35.3361 -88.6875 225° Southwest 352 405 17,100 -1,850 Descending Memphis Center
Wed 12:13:46 AM 35.2703 -88.7700 226° Southwest 352 405 15,000 -2,000 Descending Memphis Center
Wed 12:14:46 AM 35.2047 -88.8500 225° Southwest 341 392 13,100 -1,900 Descending Memphis Center
Wed 12:15:46 AM 35.1408 -88.9325 227° Southwest 336 387 11,200 -1,400 Descending Memphis Center
Wed 12:16:46 AM 35.0814 -89.0097 227° Southwest 323 372 10,300 -850 Descending Memphis Center
Wed 12:17:46 AM 35.0361 -89.0789 231° Southwest 288 331 9,500 -950 Descending Memphis Center
Wed 12:18:46 AM 35.0350 -89.1753 269° West 253 291 8,400 -1,000 Descending Memphis Center
Wed 12:19:46 AM 35.0381 -89.2667 272° West 264 304 7,500 -1,150 Descending Memphis Center
Wed 12:20:46 AM 35.0428 -89.3528 274° West 264 304 6,100 -1,300 Descending Memphis Center
Wed 12:21:46 AM 35.0456 -89.4414 272° West 264 304 4,900 -1,000 Descending Memphis Center
Wed 12:22:46 AM 35.0442 -89.5225 269° West 259 298 4,100 -600 Descending Memphis Center
Wed 12:23:46 AM 35.0467 -89.5886 273° West 222 255 3,700 -550 Descending Memphis Center
Wed 12:24:46 AM 35.0511 -89.6544 275° West 196 226 3,000 -350 Descending Memphis Center
Wed 12:25:46 AM 35.0536 -89.7153 273° West 196 226 3,000  Level Memphis Center
Wed 12:26:46 AM 35.0539 -89.7761 270° West 191 220 3,000 -350 Level Memphis Center
Wed 12:27:46 AM 35.0564 -89.8319 273° West 174 200 2,300 -800 Descending Memphis Center
Wed 12:28:46 AM 35.0564 -89.8878 270° West 174 200 1,400 -800 Descending Memphis Center
Wed 12:29:46 AM 35.0589 -89.9333 274° West 148 170 700 -450 Descending Memphis Center
Wed 12:30:46 AM 35.0589 -89.9792 270° West 142 163 500 -200 Descending Memphis Center
Wed 12:32:00 AM 35.0424 -89.9767 270° West  Level Estimated
Wed 12:39:00 AM 35.0424 -89.9767 270° West  Level Estimated
Wed 12:40:00 AM 35.0424 -89.9767 270° West  Level Estimated
Wed 12:41:00 AM 35.0424 -89.9767 270° West  Level Estimated
Wed 12:42:00 AM 35.0424 -89.9767 270° West  Level Estimated
Wed 12:43:00 AM 35.0424 -89.9767 270° West  Level Estimated
Wed 12:44:00 AM 35.0424 -89.9767 270° West  Level Estimated

Login

Don't have an account? Register now (free) for customized features, flight alerts, and more!